sensor_id;sensor_type;location;lat;lon;timestamp;temperature;humidity
429;DHT22;201;48.758;9.290;2024-02-04T00:02:23;7.50;1.00
429;DHT22;201;48.758;9.290;2024-02-04T00:04:50;7.50;1.00
429;DHT22;201;48.758;9.290;2024-02-04T00:07:16;7.50;1.00
429;DHT22;201;48.758;9.290;2024-02-04T00:09:41;7.50;1.00
429;DHT22;201;48.758;9.290;2024-02-04T00:12:09;7.40;1.00
429;DHT22;201;48.758;9.290;2024-02-04T00:14:35;7.40;1.00
429;DHT22;201;48.758;9.290;2024-02-04T00:17:00;7.50;1.00
429;DHT22;201;48.758;9.290;2024-02-04T00:19:26;7.50;1.00
429;DHT22;201;48.758;9.290;2024-02-04T00:21:52;7.40;1.00
429;DHT22;201;48.758;9.290;2024-02-04T00:24:17;7.40;1.00
429;DHT22;201;48.758;9.290;2024-02-04T00:26:44;7.40;1.00
429;DHT22;201;48.758;9.290;2024-02-04T00:29:10;7.40;1.00
429;DHT22;201;48.758;9.290;2024-02-04T00:31:35;7.40;1.00
429;DHT22;201;48.758;9.290;2024-02-04T00:34:01;7.40;1.00
429;DHT22;201;48.758;9.290;2024-02-04T00:36:27;7.30;1.00
429;DHT22;201;48.758;9.290;2024-02-04T00:38:52;7.20;1.00
429;DHT22;201;48.758;9.290;2024-02-04T00:41:18;7.20;1.00
429;DHT22;201;48.758;9.290;2024-02-04T00:43:43;7.20;1.00
429;DHT22;201;48.758;9.290;2024-02-04T00:46:09;7.20;1.00
429;DHT22;201;48.758;9.290;2024-02-04T00:48:36;7.20;1.00
429;DHT22;201;48.758;9.290;2024-02-04T00:51:03;7.10;1.00
429;DHT22;201;48.758;9.290;2024-02-04T00:53:28;7.10;1.00
429;DHT22;201;48.758;9.290;2024-02-04T00:56:02;7.00;1.00
429;DHT22;201;48.758;9.290;2024-02-04T00:58:28;7.00;1.00
429;DHT22;201;48.758;9.290;2024-02-04T01:00:54;7.00;1.00
429;DHT22;201;48.758;9.290;2024-02-04T01:03:19;7.00;1.00
429;DHT22;201;48.758;9.290;2024-02-04T01:05:45;7.00;1.00
429;DHT22;201;48.758;9.290;2024-02-04T01:08:10;6.90;1.00
429;DHT22;201;48.758;9.290;2024-02-04T01:10:36;7.00;1.00
429;DHT22;201;48.758;9.290;2024-02-04T01:13:02;7.00;1.00
429;DHT22;201;48.758;9.290;2024-02-04T01:15:28;7.00;1.00
429;DHT22;201;48.758;9.290;2024-02-04T01:17:53;7.10;1.00
429;DHT22;201;48.758;9.290;2024-02-04T01:20:19;7.10;1.00
429;DHT22;201;48.758;9.290;2024-02-04T01:22:44;7.10;1.00
429;DHT22;201;48.758;9.290;2024-02-04T01:25:10;7.20;1.00
429;DHT22;201;48.758;9.290;2024-02-04T01:27:35;7.20;1.00
429;DHT22;201;48.758;9.290;2024-02-04T01:30:01;7.30;1.00
429;DHT22;201;48.758;9.290;2024-02-04T01:32:26;7.30;1.00
429;DHT22;201;48.758;9.290;2024-02-04T01:34:52;7.30;1.00
429;DHT22;201;48.758;9.290;2024-02-04T01:37:17;7.30;1.00
429;DHT22;201;48.758;9.290;2024-02-04T01:39:43;7.30;1.00
429;DHT22;201;48.758;9.290;2024-02-04T01:42:09;7.30;1.00
429;DHT22;201;48.758;9.290;2024-02-04T01:44:35;7.20;1.00
429;DHT22;201;48.758;9.290;2024-02-04T01:47:01;7.20;1.00
429;DHT22;201;48.758;9.290;2024-02-04T01:49:27;7.10;1.00
429;DHT22;201;48.758;9.290;2024-02-04T01:51:53;7.10;1.00
429;DHT22;201;48.758;9.290;2024-02-04T01:54:19;7.00;1.00
429;DHT22;201;48.758;9.290;2024-02-04T01:56:49;7.00;1.00
429;DHT22;201;48.758;9.290;2024-02-04T01:59:15;7.00;1.00
429;DHT22;201;48.758;9.290;2024-02-04T02:01:43;7.10;1.00
429;DHT22;201;48.758;9.290;2024-02-04T02:04:08;7.10;1.00
429;DHT22;201;48.758;9.290;2024-02-04T02:06:34;7.10;1.00
429;DHT22;201;48.758;9.290;2024-02-04T02:09:07;7.10;1.00
429;DHT22;201;48.758;9.290;2024-02-04T02:11:52;7.20;1.00
429;DHT22;201;48.758;9.290;2024-02-04T02:14:24;7.20;1.00
429;DHT22;201;48.758;9.290;2024-02-04T02:16:54;7.20;1.00
429;DHT22;201;48.758;9.290;2024-02-04T02:22:28;7.20;1.00
429;DHT22;201;48.758;9.290;2024-02-04T02:24:56;7.20;1.00
429;DHT22;201;48.758;9.290;2024-02-04T02:27:22;7.20;1.00
429;DHT22;201;48.758;9.290;2024-02-04T02:29:48;7.20;1.00
429;DHT22;201;48.758;9.290;2024-02-04T02:32:13;7.20;1.00
429;DHT22;201;48.758;9.290;2024-02-04T02:34:39;7.10;1.00
429;DHT22;201;48.758;9.290;2024-02-04T02:37:20;7.10;1.00
429;DHT22;201;48.758;9.290;2024-02-04T02:42:42;7.10;1.00
429;DHT22;201;48.758;9.290;2024-02-04T02:45:09;7.10;1.00
429;DHT22;201;48.758;9.290;2024-02-04T02:47:37;7.00;1.00
429;DHT22;201;48.758;9.290;2024-02-04T02:50:05;7.00;1.00
429;DHT22;201;48.758;9.290;2024-02-04T02:52:31;7.00;1.00
429;DHT22;201;48.758;9.290;2024-02-04T02:54:56;7.00;1.00
429;DHT22;201;48.758;9.290;2024-02-04T02:57:22;7.00;1.00
429;DHT22;201;48.758;9.290;2024-02-04T02:59:47;7.00;1.00
429;DHT22;201;48.758;9.290;2024-02-04T03:02:13;7.00;1.00
429;DHT22;201;48.758;9.290;2024-02-04T03:04:39;7.00;1.00
429;DHT22;201;48.758;9.290;2024-02-04T03:07:05;7.00;1.00
429;DHT22;201;48.758;9.290;2024-02-04T03:09:31;7.00;1.00
429;DHT22;201;48.758;9.290;2024-02-04T03:11:57;7.00;1.00
429;DHT22;201;48.758;9.290;2024-02-04T03:14:22;7.00;1.00
429;DHT22;201;48.758;9.290;2024-02-04T03:16:48;7.00;1.00
429;DHT22;201;48.758;9.290;2024-02-04T03:19:14;7.00;1.00
429;DHT22;201;48.758;9.290;2024-02-04T03:21:39;7.00;1.00
429;DHT22;201;48.758;9.290;2024-02-04T03:24:05;7.00;1.00
429;DHT22;201;48.758;9.290;2024-02-04T03:26:31;7.00;1.00
429;DHT22;201;48.758;9.290;2024-02-04T03:28:56;7.00;1.00
429;DHT22;201;48.758;9.290;2024-02-04T03:31:22;7.00;1.00
429;DHT22;201;48.758;9.290;2024-02-04T03:33:49;7.00;1.00
429;DHT22;201;48.758;9.290;2024-02-04T03:36:19;7.00;1.00
429;DHT22;201;48.758;9.290;2024-02-04T03:38:45;7.00;1.00
429;DHT22;201;48.758;9.290;2024-02-04T03:41:10;7.00;1.00
429;DHT22;201;48.758;9.290;2024-02-04T03:43:36;7.00;1.00
429;DHT22;201;48.758;9.290;2024-02-04T03:46:02;7.00;1.00
429;DHT22;201;48.758;9.290;2024-02-04T03:48:27;7.00;1.00
429;DHT22;201;48.758;9.290;2024-02-04T03:50:53;7.00;1.00
429;DHT22;201;48.758;9.290;2024-02-04T03:53:18;7.00;1.00
429;DHT22;201;48.758;9.290;2024-02-04T03:55:44;7.00;1.00
429;DHT22;201;48.758;9.290;2024-02-04T03:58:09;7.00;1.00
429;DHT22;201;48.758;9.290;2024-02-04T04:00:35;7.00;1.00
429;DHT22;201;48.758;9.290;2024-02-04T04:03:01;7.00;1.00
429;DHT22;201;48.758;9.290;2024-02-04T04:05:26;7.00;1.00
429;DHT22;201;48.758;9.290;2024-02-04T04:07:52;7.00;1.00
429;DHT22;201;48.758;9.290;2024-02-04T04:10:17;7.00;1.00
429;DHT22;201;48.758;9.290;2024-02-04T04:12:43;6.90;1.00
429;DHT22;201;48.758;9.290;2024-02-04T04:15:08;6.90;1.00
429;DHT22;201;48.758;9.290;2024-02-04T04:17:34;6.90;1.10
429;DHT22;201;48.758;9.290;2024-02-04T04:19:59;6.90;1.20
429;DHT22;201;48.758;9.290;2024-02-04T04:22:25;6.90;1.40
429;DHT22;201;48.758;9.290;2024-02-04T04:24:50;6.90;1.40
429;DHT22;201;48.758;9.290;2024-02-04T04:27:16;6.90;1.40
429;DHT22;201;48.758;9.290;2024-02-04T04:29:41;6.90;1.30
429;DHT22;201;48.758;9.290;2024-02-04T04:32:07;6.90;1.30
429;DHT22;201;48.758;9.290;2024-02-04T04:34:32;6.90;1.20
429;DHT22;201;48.758;9.290;2024-02-04T04:36:58;7.00;1.30
429;DHT22;201;48.758;9.290;2024-02-04T04:39:23;7.00;1.10
429;DHT22;201;48.758;9.290;2024-02-04T04:41:49;7.00;1.10
429;DHT22;201;48.758;9.290;2024-02-04T04:44:14;7.00;1.20
429;DHT22;201;48.758;9.290;2024-02-04T04:46:40;7.00;1.00
429;DHT22;201;48.758;9.290;2024-02-04T04:49:06;7.00;1.00
429;DHT22;201;48.758;9.290;2024-02-04T04:51:31;7.00;1.00
429;DHT22;201;48.758;9.290;2024-02-04T04:53:57;7.10;1.00
429;DHT22;201;48.758;9.290;2024-02-04T04:56:23;7.10;1.00
429;DHT22;201;48.758;9.290;2024-02-04T04:58:48;7.10;1.00
429;DHT22;201;48.758;9.290;2024-02-04T05:01:15;7.10;1.00
429;DHT22;201;48.758;9.290;2024-02-04T05:03:40;7.10;1.00
429;DHT22;201;48.758;9.290;2024-02-04T05:06:06;7.10;1.00
429;DHT22;201;48.758;9.290;2024-02-04T05:08:31;7.10;1.00
429;DHT22;201;48.758;9.290;2024-02-04T05:10:57;7.10;1.00
429;DHT22;201;48.758;9.290;2024-02-04T05:13:22;7.10;1.00
429;DHT22;201;48.758;9.290;2024-02-04T05:15:48;7.10;1.00
429;DHT22;201;48.758;9.290;2024-02-04T05:18:14;7.10;1.00
429;DHT22;201;48.758;9.290;2024-02-04T05:20:39;7.10;1.00
429;DHT22;201;48.758;9.290;2024-02-04T05:23:05;7.10;1.00
429;DHT22;201;48.758;9.290;2024-02-04T05:25:30;7.10;1.00
429;DHT22;201;48.758;9.290;2024-02-04T05:27:56;7.10;1.00
429;DHT22;201;48.758;9.290;2024-02-04T05:30:22;7.10;1.00
429;DHT22;201;48.758;9.290;2024-02-04T05:32:47;7.10;1.00
429;DHT22;201;48.758;9.290;2024-02-04T05:35:13;7.10;1.00
429;DHT22;201;48.758;9.290;2024-02-04T05:37:38;7.00;1.00
429;DHT22;201;48.758;9.290;2024-02-04T05:40:04;7.00;1.00
429;DHT22;201;48.758;9.290;2024-02-04T05:42:30;7.00;1.00
429;DHT22;201;48.758;9.290;2024-02-04T05:44:57;7.00;1.00
429;DHT22;201;48.758;9.290;2024-02-04T05:47:23;7.00;1.00
429;DHT22;201;48.758;9.290;2024-02-04T05:49:48;7.00;1.00
429;DHT22;201;48.758;9.290;2024-02-04T05:52:15;7.00;1.00
429;DHT22;201;48.758;9.290;2024-02-04T05:54:40;7.00;1.00
429;DHT22;201;48.758;9.290;2024-02-04T05:57:06;7.00;1.00
429;DHT22;201;48.758;9.290;2024-02-04T05:59:32;6.90;1.00
429;DHT22;201;48.758;9.290;2024-02-04T06:01:58;7.00;1.00
429;DHT22;201;48.758;9.290;2024-02-04T06:04:23;6.90;1.00
429;DHT22;201;48.758;9.290;2024-02-04T06:06:49;6.90;1.00
429;DHT22;201;48.758;9.290;2024-02-04T06:09:14;6.90;1.00
429;DHT22;201;48.758;9.290;2024-02-04T06:11:40;6.90;1.00
429;DHT22;201;48.758;9.290;2024-02-04T06:14:06;6.90;1.00
429;DHT22;201;48.758;9.290;2024-02-04T06:16:31;6.90;1.00
429;DHT22;201;48.758;9.290;2024-02-04T06:18:59;6.90;1.00
429;DHT22;201;48.758;9.290;2024-02-04T06:21:25;6.90;1.00
429;DHT22;201;48.758;9.290;2024-02-04T06:23:51;6.90;1.00
429;DHT22;201;48.758;9.290;2024-02-04T06:26:16;6.90;1.00
429;DHT22;201;48.758;9.290;2024-02-04T06:28:42;6.90;1.00
429;DHT22;201;48.758;9.290;2024-02-04T06:31:11;6.90;1.00
429;DHT22;201;48.758;9.290;2024-02-04T06:33:37;6.90;1.00
429;DHT22;201;48.758;9.290;2024-02-04T06:36:02;6.90;1.00
429;DHT22;201;48.758;9.290;2024-02-04T06:38:28;6.90;1.00
429;DHT22;201;48.758;9.290;2024-02-04T06:40:54;6.90;1.00
429;DHT22;201;48.758;9.290;2024-02-04T06:43:19;6.90;1.00
429;DHT22;201;48.758;9.290;2024-02-04T06:45:45;6.90;1.00
429;DHT22;201;48.758;9.290;2024-02-04T06:48:11;6.90;1.00
429;DHT22;201;48.758;9.290;2024-02-04T06:50:36;6.90;1.00
429;DHT22;201;48.758;9.290;2024-02-04T06:53:02;6.90;1.00
429;DHT22;201;48.758;9.290;2024-02-04T06:55:28;6.90;1.00
429;DHT22;201;48.758;9.290;2024-02-04T06:57:53;6.90;1.00
429;DHT22;201;48.758;9.290;2024-02-04T07:00:19;6.90;1.00
429;DHT22;201;48.758;9.290;2024-02-04T07:02:46;6.90;1.00
429;DHT22;201;48.758;9.290;2024-02-04T07:05:12;6.90;1.00
429;DHT22;201;48.758;9.290;2024-02-04T07:07:37;6.90;1.00
429;DHT22;201;48.758;9.290;2024-02-04T07:10:03;6.90;1.00
429;DHT22;201;48.758;9.290;2024-02-04T07:12:29;6.90;1.00
429;DHT22;201;48.758;9.290;2024-02-04T07:14:54;6.90;1.00
429;DHT22;201;48.758;9.290;2024-02-04T07:17:20;7.00;1.00
429;DHT22;201;48.758;9.290;2024-02-04T07:19:45;7.00;1.00
429;DHT22;201;48.758;9.290;2024-02-04T07:22:11;7.00;1.00
429;DHT22;201;48.758;9.290;2024-02-04T07:24:36;7.00;1.00
429;DHT22;201;48.758;9.290;2024-02-04T07:27:02;7.00;1.00
429;DHT22;201;48.758;9.290;2024-02-04T07:29:27;7.00;1.00
429;DHT22;201;48.758;9.290;2024-02-04T07:31:53;7.10;1.00
429;DHT22;201;48.758;9.290;2024-02-04T07:34:18;7.10;1.00
429;DHT22;201;48.758;9.290;2024-02-04T07:36:44;7.10;1.00
429;DHT22;201;48.758;9.290;2024-02-04T07:39:10;7.00;1.00
429;DHT22;201;48.758;9.290;2024-02-04T07:41:36;7.10;1.00
429;DHT22;201;48.758;9.290;2024-02-04T07:44:01;7.10;1.00
429;DHT22;201;48.758;9.290;2024-02-04T07:46:27;7.20;1.00
429;DHT22;201;48.758;9.290;2024-02-04T07:48:52;7.20;1.00
429;DHT22;201;48.758;9.290;2024-02-04T07:51:18;7.20;1.00
429;DHT22;201;48.758;9.290;2024-02-04T07:53:44;7.20;1.00
429;DHT22;201;48.758;9.290;2024-02-04T07:56:09;7.20;1.00
429;DHT22;201;48.758;9.290;2024-02-04T07:58:36;7.20;1.00
429;DHT22;201;48.758;9.290;2024-02-04T08:01:01;7.20;1.00
429;DHT22;201;48.758;9.290;2024-02-04T08:03:27;7.20;1.00
429;DHT22;201;48.758;9.290;2024-02-04T08:05:53;7.30;1.00
429;DHT22;201;48.758;9.290;2024-02-04T08:08:18;7.30;1.00
429;DHT22;201;48.758;9.290;2024-02-04T08:10:44;7.40;1.00
429;DHT22;201;48.758;9.290;2024-02-04T08:13:10;7.40;1.00
429;DHT22;201;48.758;9.290;2024-02-04T08:15:35;7.40;1.00
429;DHT22;201;48.758;9.290;2024-02-04T08:18:01;7.40;1.00
429;DHT22;201;48.758;9.290;2024-02-04T08:20:26;7.40;1.00
429;DHT22;201;48.758;9.290;2024-02-04T08:22:52;7.40;1.00
429;DHT22;201;48.758;9.290;2024-02-04T08:25:18;7.40;1.00
429;DHT22;201;48.758;9.290;2024-02-04T08:27:43;7.30;1.00
429;DHT22;201;48.758;9.290;2024-02-04T08:30:09;7.30;1.00
429;DHT22;201;48.758;9.290;2024-02-04T08:32:37;7.40;1.00
429;DHT22;201;48.758;9.290;2024-02-04T08:35:03;7.40;1.00
429;DHT22;201;48.758;9.290;2024-02-04T08:37:29;7.50;1.00
429;DHT22;201;48.758;9.290;2024-02-04T08:39:54;7.60;1.00
429;DHT22;201;48.758;9.290;2024-02-04T08:42:20;7.60;1.00
429;DHT22;201;48.758;9.290;2024-02-04T08:44:46;7.60;1.00
429;DHT22;201;48.758;9.290;2024-02-04T08:47:12;7.60;1.00
429;DHT22;201;48.758;9.290;2024-02-04T08:49:39;7.60;1.00
429;DHT22;201;48.758;9.290;2024-02-04T08:52:05;7.70;1.00
429;DHT22;201;48.758;9.290;2024-02-04T08:54:31;7.70;1.00
429;DHT22;201;48.758;9.290;2024-02-04T08:56:56;7.70;1.00
429;DHT22;201;48.758;9.290;2024-02-04T08:59:22;7.70;1.00
429;DHT22;201;48.758;9.290;2024-02-04T09:01:50;7.70;1.00
429;DHT22;201;48.758;9.290;2024-02-04T09:04:15;7.70;1.00
429;DHT22;201;48.758;9.290;2024-02-04T09:06:41;7.80;1.00
429;DHT22;201;48.758;9.290;2024-02-04T09:09:06;7.70;1.00
429;DHT22;201;48.758;9.290;2024-02-04T09:11:33;7.70;1.00
429;DHT22;201;48.758;9.290;2024-02-04T09:13:59;7.70;1.00
429;DHT22;201;48.758;9.290;2024-02-04T09:16:24;7.80;1.00
429;DHT22;201;48.758;9.290;2024-02-04T09:18:50;7.80;1.00
429;DHT22;201;48.758;9.290;2024-02-04T09:21:16;7.90;1.00
429;DHT22;201;48.758;9.290;2024-02-04T09:23:41;7.90;1.00
429;DHT22;201;48.758;9.290;2024-02-04T09:26:07;7.90;1.00
429;DHT22;201;48.758;9.290;2024-02-04T09:28:32;7.90;1.00
429;DHT22;201;48.758;9.290;2024-02-04T09:30:58;7.90;1.00
429;DHT22;201;48.758;9.290;2024-02-04T09:33:24;7.90;1.00
429;DHT22;201;48.758;9.290;2024-02-04T09:35:49;7.90;1.00
429;DHT22;201;48.758;9.290;2024-02-04T09:38:15;7.90;1.00
429;DHT22;201;48.758;9.290;2024-02-04T09:40:41;7.90;1.00
429;DHT22;201;48.758;9.290;2024-02-04T09:43:06;8.00;1.00
429;DHT22;201;48.758;9.290;2024-02-04T09:45:33;8.10;1.00
429;DHT22;201;48.758;9.290;2024-02-04T09:48:01;8.20;1.00
429;DHT22;201;48.758;9.290;2024-02-04T09:50:27;8.20;1.00
429;DHT22;201;48.758;9.290;2024-02-04T09:52:58;8.30;1.00
429;DHT22;201;48.758;9.290;2024-02-04T09:55:25;8.50;1.00
429;DHT22;201;48.758;9.290;2024-02-04T09:57:52;8.50;1.00
429;DHT22;201;48.758;9.290;2024-02-04T10:00:19;8.60;1.00
429;DHT22;201;48.758;9.290;2024-02-04T10:02:48;8.60;1.00
429;DHT22;201;48.758;9.290;2024-02-04T10:05:15;8.70;1.00
429;DHT22;201;48.758;9.290;2024-02-04T10:07:40;8.70;1.00
429;DHT22;201;48.758;9.290;2024-02-04T10:10:07;8.70;1.00
429;DHT22;201;48.758;9.290;2024-02-04T10:12:33;8.70;1.00
429;DHT22;201;48.758;9.290;2024-02-04T10:15:00;8.70;1.00
429;DHT22;201;48.758;9.290;2024-02-04T10:17:27;8.80;1.00
429;DHT22;201;48.758;9.290;2024-02-04T10:19:53;8.80;1.00
429;DHT22;201;48.758;9.290;2024-02-04T10:22:18;8.90;1.00
429;DHT22;201;48.758;9.290;2024-02-04T10:24:44;9.00;1.00
429;DHT22;201;48.758;9.290;2024-02-04T10:27:12;9.10;1.00
429;DHT22;201;48.758;9.290;2024-02-04T10:29:37;9.20;1.00
429;DHT22;201;48.758;9.290;2024-02-04T10:32:03;9.20;1.00
429;DHT22;201;48.758;9.290;2024-02-04T10:34:29;9.20;1.00
429;DHT22;201;48.758;9.290;2024-02-04T10:36:56;9.20;1.00
429;DHT22;201;48.758;9.290;2024-02-04T10:39:21;9.30;1.00
429;DHT22;201;48.758;9.290;2024-02-04T10:41:51;9.50;1.00
429;DHT22;201;48.758;9.290;2024-02-04T10:44:23;9.50;1.00
429;DHT22;201;48.758;9.290;2024-02-04T10:46:50;9.50;1.00
429;DHT22;201;48.758;9.290;2024-02-04T10:49:18;9.60;1.00
429;DHT22;201;48.758;9.290;2024-02-04T10:51:45;9.60;1.00
429;DHT22;201;48.758;9.290;2024-02-04T10:54:20;9.70;1.00
429;DHT22;201;48.758;9.290;2024-02-04T10:56:59;9.80;1.00
429;DHT22;201;48.758;9.290;2024-02-04T10:59:27;9.90;1.00
429;DHT22;201;48.758;9.290;2024-02-04T11:01:55;9.90;1.00
429;DHT22;201;48.758;9.290;2024-02-04T11:04:22;10.00;1.00
429;DHT22;201;48.758;9.290;2024-02-04T11:06:49;10.10;1.00
429;DHT22;201;48.758;9.290;2024-02-04T11:09:16;9.90;1.00
429;DHT22;201;48.758;9.290;2024-02-04T11:11:43;9.90;1.00
429;DHT22;201;48.758;9.290;2024-02-04T11:14:11;9.80;1.00
429;DHT22;201;48.758;9.290;2024-02-04T11:22:24;10.00;1.00
429;DHT22;201;48.758;9.290;2024-02-04T11:25:11;10.30;1.00
429;DHT22;201;48.758;9.290;2024-02-04T11:27:42;10.70;1.00
429;DHT22;201;48.758;9.290;2024-02-04T11:30:08;11.00;1.00
429;DHT22;201;48.758;9.290;2024-02-04T11:32:35;11.20;1.00
429;DHT22;201;48.758;9.290;2024-02-04T11:35:02;11.50;1.00
429;DHT22;201;48.758;9.290;2024-02-04T11:37:28;11.80;1.00
429;DHT22;201;48.758;9.290;2024-02-04T11:39:57;12.00;1.00
429;DHT22;201;48.758;9.290;2024-02-04T11:42:31;12.10;1.00
429;DHT22;201;48.758;9.290;2024-02-04T11:45:10;12.00;1.00
429;DHT22;201;48.758;9.290;2024-02-04T11:47:37;12.10;1.00
429;DHT22;201;48.758;9.290;2024-02-04T11:50:04;12.00;1.00
429;DHT22;201;48.758;9.290;2024-02-04T11:52:29;12.10;1.00
429;DHT22;201;48.758;9.290;2024-02-04T11:54:55;12.20;1.00
429;DHT22;201;48.758;9.290;2024-02-04T11:57:22;12.30;1.00
429;DHT22;201;48.758;9.290;2024-02-04T11:59:49;12.60;1.00
429;DHT22;201;48.758;9.290;2024-02-04T12:02:16;12.80;1.00
429;DHT22;201;48.758;9.290;2024-02-04T12:04:49;12.90;1.00
429;DHT22;201;48.758;9.290;2024-02-04T12:07:16;12.90;1.00
429;DHT22;201;48.758;9.290;2024-02-04T12:09:43;12.90;1.00
429;DHT22;201;48.758;9.290;2024-02-04T12:12:09;12.70;1.00
429;DHT22;201;48.758;9.290;2024-02-04T12:14:35;12.60;1.00
429;DHT22;201;48.758;9.290;2024-02-04T12:17:10;12.30;1.00
429;DHT22;201;48.758;9.290;2024-02-04T12:19:36;11.90;1.00
429;DHT22;201;48.758;9.290;2024-02-04T12:22:02;11.70;1.00
429;DHT22;201;48.758;9.290;2024-02-04T12:24:33;11.60;1.00
429;DHT22;201;48.758;9.290;2024-02-04T12:26:59;11.70;1.00
429;DHT22;201;48.758;9.290;2024-02-04T12:29:24;11.90;1.00
429;DHT22;201;48.758;9.290;2024-02-04T12:32:03;12.00;1.00
429;DHT22;201;48.758;9.290;2024-02-04T12:34:29;11.80;1.00
429;DHT22;201;48.758;9.290;2024-02-04T12:36:59;11.70;1.00
429;DHT22;201;48.758;9.290;2024-02-04T12:39:25;11.70;1.00
429;DHT22;201;48.758;9.290;2024-02-04T12:41:51;11.70;1.00
429;DHT22;201;48.758;9.290;2024-02-04T12:44:18;11.70;1.00
429;DHT22;201;48.758;9.290;2024-02-04T12:46:43;11.80;1.00
429;DHT22;201;48.758;9.290;2024-02-04T12:49:09;11.80;1.00
429;DHT22;201;48.758;9.290;2024-02-04T12:51:34;11.70;1.00
429;DHT22;201;48.758;9.290;2024-02-04T12:54:10;11.70;1.00
429;DHT22;201;48.758;9.290;2024-02-04T12:56:51;11.80;1.00
429;DHT22;201;48.758;9.290;2024-02-04T12:59:27;11.70;1.00
429;DHT22;201;48.758;9.290;2024-02-04T13:02:01;11.60;1.00
429;DHT22;201;48.758;9.290;2024-02-04T13:04:26;11.60;1.00
429;DHT22;201;48.758;9.290;2024-02-04T13:06:58;11.80;1.00
429;DHT22;201;48.758;9.290;2024-02-04T13:09:23;12.10;1.00
429;DHT22;201;48.758;9.290;2024-02-04T13:11:49;12.30;1.00
429;DHT22;201;48.758;9.290;2024-02-04T13:14:15;12.30;1.00
429;DHT22;201;48.758;9.290;2024-02-04T13:16:41;12.60;1.00
429;DHT22;201;48.758;9.290;2024-02-04T13:19:06;12.60;1.00
429;DHT22;201;48.758;9.290;2024-02-04T13:21:32;12.70;1.00
429;DHT22;201;48.758;9.290;2024-02-04T13:23:58;12.70;1.00
429;DHT22;201;48.758;9.290;2024-02-04T13:26:23;12.60;1.00
429;DHT22;201;48.758;9.290;2024-02-04T13:28:49;12.40;1.00
429;DHT22;201;48.758;9.290;2024-02-04T13:31:15;12.40;1.00
429;DHT22;201;48.758;9.290;2024-02-04T13:33:40;12.40;1.00
429;DHT22;201;48.758;9.290;2024-02-04T13:36:07;12.30;1.00
429;DHT22;201;48.758;9.290;2024-02-04T13:38:36;12.30;1.00
429;DHT22;201;48.758;9.290;2024-02-04T13:41:02;12.20;1.00
429;DHT22;201;48.758;9.290;2024-02-04T13:43:30;12.30;1.00
429;DHT22;201;48.758;9.290;2024-02-04T13:45:55;12.20;1.00
429;DHT22;201;48.758;9.290;2024-02-04T13:48:21;12.00;1.00
429;DHT22;201;48.758;9.290;2024-02-04T13:50:48;11.90;1.00
429;DHT22;201;48.758;9.290;2024-02-04T13:53:13;11.90;1.00
429;DHT22;201;48.758;9.290;2024-02-04T13:55:40;11.80;1.00
429;DHT22;201;48.758;9.290;2024-02-04T13:58:05;11.80;1.00
429;DHT22;201;48.758;9.290;2024-02-04T14:00:31;11.80;1.00
429;DHT22;201;48.758;9.290;2024-02-04T14:02:57;11.70;1.00
429;DHT22;201;48.758;9.290;2024-02-04T14:05:22;11.80;1.00
429;DHT22;201;48.758;9.290;2024-02-04T14:07:50;11.80;1.00
429;DHT22;201;48.758;9.290;2024-02-04T14:10:16;11.80;1.00
429;DHT22;201;48.758;9.290;2024-02-04T14:12:41;11.70;1.00
429;DHT22;201;48.758;9.290;2024-02-04T14:15:10;11.60;1.00
429;DHT22;201;48.758;9.290;2024-02-04T14:17:36;11.50;1.00
429;DHT22;201;48.758;9.290;2024-02-04T14:20:02;11.50;1.00
429;DHT22;201;48.758;9.290;2024-02-04T14:22:30;11.40;1.00
429;DHT22;201;48.758;9.290;2024-02-04T14:24:56;11.30;1.00
429;DHT22;201;48.758;9.290;2024-02-04T14:27:22;11.20;1.00
429;DHT22;201;48.758;9.290;2024-02-04T14:29:48;11.20;1.00
429;DHT22;201;48.758;9.290;2024-02-04T14:32:13;11.20;1.00
429;DHT22;201;48.758;9.290;2024-02-04T14:34:39;11.10;1.00
429;DHT22;201;48.758;9.290;2024-02-04T14:37:04;11.00;1.00
429;DHT22;201;48.758;9.290;2024-02-04T14:39:30;10.80;1.00
429;DHT22;201;48.758;9.290;2024-02-04T14:41:57;10.80;1.00
429;DHT22;201;48.758;9.290;2024-02-04T14:44:22;10.80;1.00
429;DHT22;201;48.758;9.290;2024-02-04T14:46:49;10.70;1.00
429;DHT22;201;48.758;9.290;2024-02-04T14:49:14;10.60;1.00
429;DHT22;201;48.758;9.290;2024-02-04T14:51:40;10.50;1.00
429;DHT22;201;48.758;9.290;2024-02-04T14:54:07;10.50;1.00
429;DHT22;201;48.758;9.290;2024-02-04T14:56:41;10.50;1.00
429;DHT22;201;48.758;9.290;2024-02-04T14:59:11;10.50;1.00
429;DHT22;201;48.758;9.290;2024-02-04T15:01:37;10.50;1.00
429;DHT22;201;48.758;9.290;2024-02-04T15:04:03;10.50;1.00
429;DHT22;201;48.758;9.290;2024-02-04T15:06:29;10.50;1.00
429;DHT22;201;48.758;9.290;2024-02-04T15:08:58;10.50;1.00
429;DHT22;201;48.758;9.290;2024-02-04T15:11:25;10.40;1.00
429;DHT22;201;48.758;9.290;2024-02-04T15:13:52;10.40;1.00
429;DHT22;201;48.758;9.290;2024-02-04T15:16:18;10.30;1.00
429;DHT22;201;48.758;9.290;2024-02-04T15:18:44;10.30;1.00
429;DHT22;201;48.758;9.290;2024-02-04T15:21:10;10.30;1.00
429;DHT22;201;48.758;9.290;2024-02-04T15:23:36;10.30;1.00
429;DHT22;201;48.758;9.290;2024-02-04T15:26:02;10.20;1.00
429;DHT22;201;48.758;9.290;2024-02-04T15:28:29;10.20;1.00
429;DHT22;201;48.758;9.290;2024-02-04T15:30:55;10.20;1.00
429;DHT22;201;48.758;9.290;2024-02-04T15:33:21;10.10;1.00
429;DHT22;201;48.758;9.290;2024-02-04T15:35:46;10.10;1.00
429;DHT22;201;48.758;9.290;2024-02-04T15:38:12;10.10;1.00
429;DHT22;201;48.758;9.290;2024-02-04T15:40:37;10.10;1.00
429;DHT22;201;48.758;9.290;2024-02-04T15:43:03;10.10;1.00
429;DHT22;201;48.758;9.290;2024-02-04T15:45:29;10.10;1.00
429;DHT22;201;48.758;9.290;2024-02-04T15:47:55;10.10;1.00
429;DHT22;201;48.758;9.290;2024-02-04T15:50:23;10.10;1.00
429;DHT22;201;48.758;9.290;2024-02-04T15:52:50;10.10;1.00
429;DHT22;201;48.758;9.290;2024-02-04T15:55:17;10.10;1.00
429;DHT22;201;48.758;9.290;2024-02-04T15:57:47;10.00;1.00
429;DHT22;201;48.758;9.290;2024-02-04T16:00:15;10.00;1.00
429;DHT22;201;48.758;9.290;2024-02-04T16:02:48;9.90;1.00
429;DHT22;201;48.758;9.290;2024-02-04T16:05:15;10.00;1.00
429;DHT22;201;48.758;9.290;2024-02-04T16:07:41;9.90;1.00
429;DHT22;201;48.758;9.290;2024-02-04T16:10:08;9.90;1.00
429;DHT22;201;48.758;9.290;2024-02-04T16:12:35;9.90;1.00
429;DHT22;201;48.758;9.290;2024-02-04T16:15:02;9.80;1.00
429;DHT22;201;48.758;9.290;2024-02-04T16:17:32;9.80;1.00
429;DHT22;201;48.758;9.290;2024-02-04T16:19:58;9.80;1.00
429;DHT22;201;48.758;9.290;2024-02-04T16:22:24;9.70;1.00
429;DHT22;201;48.758;9.290;2024-02-04T16:24:51;9.70;1.00
429;DHT22;201;48.758;9.290;2024-02-04T16:27:16;9.50;1.00
429;DHT22;201;48.758;9.290;2024-02-04T16:29:42;9.50;1.00
429;DHT22;201;48.758;9.290;2024-02-04T16:32:10;9.50;1.00
429;DHT22;201;48.758;9.290;2024-02-04T16:34:39;9.50;1.00
429;DHT22;201;48.758;9.290;2024-02-04T16:37:05;9.30;1.00
429;DHT22;201;48.758;9.290;2024-02-04T16:39:34;9.30;1.00
429;DHT22;201;48.758;9.290;2024-02-04T16:42:00;9.30;1.00
429;DHT22;201;48.758;9.290;2024-02-04T16:44:26;9.30;1.00
429;DHT22;201;48.758;9.290;2024-02-04T16:46:51;9.30;1.00
429;DHT22;201;48.758;9.290;2024-02-04T16:49:18;9.20;1.00
429;DHT22;201;48.758;9.290;2024-02-04T16:51:44;9.30;1.00
429;DHT22;201;48.758;9.290;2024-02-04T16:54:10;9.30;1.00
429;DHT22;201;48.758;9.290;2024-02-04T16:56:35;9.30;1.00
429;DHT22;201;48.758;9.290;2024-02-04T16:59:02;9.30;1.00
429;DHT22;201;48.758;9.290;2024-02-04T17:01:29;9.30;1.00
429;DHT22;201;48.758;9.290;2024-02-04T17:03:56;9.30;1.00
429;DHT22;201;48.758;9.290;2024-02-04T17:06:23;9.20;1.00
429;DHT22;201;48.758;9.290;2024-02-04T17:08:48;9.10;1.00
429;DHT22;201;48.758;9.290;2024-02-04T17:11:14;9.10;1.00